Time;durP1;ratioP1;P1;durP2;ratioP2;P2;SDS_P1;SDS_P2;PMS_P1;PMS_P2;Temp;Humidity;BMP_temperature;BMP_pressure;BME280_temperature;BME280_humidity;BME280_pressure;Samples;Min_cycle;Max_cycle;Signal;HPM_P1;HPM_P2
2022/06/05 00:03:58;;;;;;;7.57;4.15;;;;;;;17.38;64.28;101503.28;10484245;28;20526;-75
2022/06/05 00:09:23;;;;;;;8.30;4.90;;;;;;;17.07;65.47;101498.78;10494786;28;20522;-75
2022/06/05 00:14:24;;;;;;;9.25;5.68;;;;;;;16.88;66.86;101501.72;10483968;28;20075;-75
2022/06/05 00:19:24;;;;;;;7.20;5.25;;;;;;;16.73;67.49;101488.91;10483456;28;20120;-75
2022/06/05 00:24:25;;;;;;;6.65;5.03;;;;;;;16.75;66.05;101473.13;10484759;28;20982;-76
2022/06/05 00:29:34;;;;;;;7.85;5.60;;;;;;;16.87;66.17;101486.72;10478436;28;20040;-76
2022/06/05 00:34:35;;;;;;;8.15;6.05;;;;;;;16.85;65.68;101490.16;10482766;28;20040;-76
2022/06/05 00:39:38;;;;;;;9.38;5.20;;;;;;;16.91;66.25;101489.47;10475739;28;20036;-76
2022/06/05 00:44:52;;;;;;;6.50;5.45;;;;;;;16.86;65.70;101477.00;10442698;28;20086;-76
2022/06/05 00:50:17;;;;;;;9.70;5.90;;;;;;;16.96;65.43;101467.59;10459750;28;20048;-76
2022/06/05 00:55:18;;;;;;;8.43;5.45;;;;;;;17.01;65.72;101458.09;10457633;28;20036;-76
2022/06/05 01:00:21;;;;;;;8.73;5.75;;;;;;;16.96;66.25;101449.09;10457944;28;20036;-77
2022/06/05 01:05:22;;;;;;;6.85;5.90;;;;;;;16.87;66.45;101446.16;10485109;28;20041;-78
2022/06/05 01:10:26;;;;;;;5.90;4.90;;;;;;;16.85;66.50;101435.56;10466156;28;20053;-78
2022/06/05 01:15:38;;;;;;;7.55;5.22;;;;;;;16.83;66.57;101424.03;10425067;28;20063;-76
2022/06/05 01:20:47;;;;;;;7.33;4.93;;;;;;;16.92;66.91;101430.44;10463441;28;20040;-76
2022/06/05 01:26:37;;;;;;;8.75;5.38;;;;;;;17.00;66.08;101424.56;10466416;28;20112;-76
2022/06/05 01:31:47;;;;;;;7.28;5.30;;;;;;;17.06;66.62;101428.25;10524912;28;20094;-76
2022/06/05 01:37:10;;;;;;;7.15;5.90;;;;;;;16.96;67.54;101434.97;10505398;28;20050;-76
2022/06/05 01:42:16;;;;;;;7.20;5.50;;;;;;;16.97;66.31;101389.22;10483908;28;20044;-77
2022/06/05 01:47:22;;;;;;;5.85;5.20;;;;;;;16.83;66.87;101391.41;10487733;28;20119;-76
2022/06/05 01:52:24;;;;;;;7.60;5.95;;;;;;;16.73;66.88;101406.97;10506347;28;20043;-77
2022/06/05 01:57:25;;;;;;;10.25;6.00;;;;;;;16.64;68.06;101396.13;10499547;28;20028;-76
2022/06/05 02:02:27;;;;;;;7.80;6.78;;;;;;;16.44;69.20;101374.38;10466036;28;20090;-77
2022/06/05 02:07:45;;;;;;;8.90;6.95;;;;;;;16.13;71.00;101346.97;10497574;28;20448;-76
2022/06/05 02:12:45;;;;;;;7.60;6.78;;;;;;;15.75;73.01;101342.16;10497165;28;20079;-76
2022/06/05 02:17:46;;;;;;;12.35;6.72;;;;;;;15.59;73.92;101337.22;10506456;28;20047;-76
2022/06/05 02:22:48;;;;;;;10.85;7.90;;;;;;;15.57;73.81;101324.00;10514129;28;20042;-76
2022/06/05 02:27:48;;;;;;;9.20;7.10;;;;;;;15.68;73.26;101309.41;10468510;28;20097;-76
2022/06/05 02:33:23;;;;;;;11.82;6.38;;;;;;;15.79;72.45;101304.47;10488361;28;20361;-75
2022/06/05 02:38:41;;;;;;;9.38;6.65;;;;;;;15.98;71.44;101286.66;10471183;28;20037;-75
2022/06/05 02:43:45;;;;;;;11.80;8.30;;;;;;;15.97;71.77;101282.22;10530514;28;20048;-75
2022/06/05 02:48:53;;;;;;;10.75;8.00;;;;;;;15.97;71.31;101261.09;10491894;28;20037;-75
2022/06/05 02:53:55;;;;;;;9.27;6.97;;;;;;;15.94;71.39;101261.91;10472054;28;20040;-75
2022/06/05 02:58:57;;;;;;;9.52;8.32;;;;;;;15.98;71.27;101260.25;10470698;28;20032;-75
2022/06/05 03:03:58;;;;;;;15.38;7.38;;;;;;;16.06;70.62;101260.50;10488786;28;20044;-76
2022/06/05 03:08:58;;;;;;;8.63;7.15;;;;;;;16.09;70.96;101250.03;10469829;28;20844;-75
2022/06/05 03:13:59;;;;;;;9.02;7.50;;;;;;;16.07;70.96;101239.41;10486894;28;20051;-75
2022/06/05 03:18:59;;;;;;;11.57;7.63;;;;;;;16.03;71.16;101240.16;10528229;28;20036;-76
2022/06/05 03:24:00;;;;;;;10.13;6.90;;;;;;;16.05;72.05;101243.75;10509909;28;20119;-75
2022/06/05 03:29:02;;;;;;;9.23;7.93;;;;;;;15.92;72.52;101252.13;10487124;28;20067;-75
2022/06/05 03:34:04;;;;;;;11.68;7.80;;;;;;;15.97;71.27;101264.66;10472921;28;20126;-73
2022/06/05 03:39:10;;;;;;;14.75;6.55;;;;;;;16.00;70.98;101261.19;10432027;28;20044;-74
2022/06/05 03:44:14;;;;;;;8.02;6.18;;;;;;;15.84;72.50;101246.59;10484432;28;20051;-74
2022/06/05 03:49:15;;;;;;;11.05;8.75;;;;;;;15.84;72.15;101243.94;10483843;28;20089;-75
2022/06/05 03:54:17;;;;;;;9.05;7.53;;;;;;;15.84;72.05;101243.94;10492660;28;20044;-74
2022/06/05 03:59:21;;;;;;;9.63;6.80;;;;;;;15.81;72.14;101238.56;10528448;28;20024;-74
2022/06/05 04:04:38;;;;;;;12.40;7.53;;;;;;;15.75;73.51;101238.38;10520038;28;20032;-75
2022/06/05 04:09:45;;;;;;;10.80;7.93;;;;;;;15.70;73.67;101243.50;10484532;28;20044;-74
2022/06/05 04:14:48;;;;;;;8.90;7.85;;;;;;;15.66;74.38;101244.22;10494380;28;20105;-74
2022/06/05 04:20:00;;;;;;;8.80;7.75;;;;;;;15.65;74.17;101242.44;10525517;28;20503;-74
2022/06/05 04:25:04;;;;;;;13.75;8.40;;;;;;;15.74;72.97;101232.19;10516132;28;20069;-74
2022/06/05 04:30:09;;;;;;;13.32;8.23;;;;;;;15.82;73.05;101240.38;10525049;28;20063;-74
2022/06/05 04:35:10;;;;;;;10.23;7.90;;;;;;;15.87;74.40;101244.09;10512670;28;20044;-75
2022/06/05 04:40:11;;;;;;;9.05;7.75;;;;;;;15.94;72.28;101239.88;10466948;28;20043;-74
2022/06/05 04:45:17;;;;;;;10.95;7.40;;;;;;;16.13;71.58;101250.16;10494347;28;20028;-73
2022/06/05 04:50:25;;;;;;;13.43;8.45;;;;;;;16.14;71.47;101254.59;10506856;28;20056;-74
2022/06/05 04:55:33;;;;;;;9.63;8.13;;;;;;;16.04;72.90;101265.72;10510531;28;20532;-75
2022/06/05 05:00:41;;;;;;;11.05;7.78;;;;;;;16.09;72.90;101277.31;10486102;28;20091;-75
2022/06/05 05:05:43;;;;;;;10.82;8.70;;;;;;;16.18;72.24;101274.09;10481210;28;20514;-74
2022/06/05 05:10:47;;;;;;;11.18;7.70;;;;;;;16.40;71.37;101280.03;10482452;28;20037;-74
2022/06/05 05:15:54;;;;;;;10.13;7.10;;;;;;;16.49;71.91;101275.03;10468889;28;20037;-74
2022/06/05 05:21:09;;;;;;;17.33;9.85;;;;;;;16.59;70.85;101278.81;10483699;28;20066;-76
2022/06/05 05:26:34;;;;;;;11.68;9.25;;;;;;;16.69;70.58;101274.72;10465928;28;20043;-75
2022/06/05 05:31:38;;;;;;;8.57;7.05;;;;;;;16.83;69.99;101272.44;10499192;28;20527;-74
2022/06/05 05:36:44;;;;;;;12.32;9.52;;;;;;;16.92;69.49;101263.91;10482664;28;20397;-74
2022/06/05 05:42:09;;;;;;;10.63;7.70;;;;;;;17.02;69.28;101251.00;10488649;28;20090;-73
2022/06/05 05:47:44;;;;;;;9.75;7.65;;;;;;;17.16;69.18;101251.38;10472500;28;20040;-73
2022/06/05 05:52:48;;;;;;;8.82;7.43;;;;;;;17.39;68.98;101242.25;10491298;28;20179;-73
2022/06/05 05:57:55;;;;;;;;;;;;;;;17.64;67.65;101227.88;10511920;28;20044;-75
2022/06/05 06:02:57;;;;;;;9.13;7.35;;;;;;;17.76;67.07;101221.97;10508191;28;19927;-74
2022/06/05 06:08:03;;;;;;;10.52;8.13;;;;;;;17.92;66.12;101210.00;10531360;28;20119;-73
2022/06/05 06:13:06;;;;;;;12.90;9.02;;;;;;;17.96;66.90;101193.31;10479106;28;20055;-74
2022/06/05 06:18:07;;;;;;;;;;;;;;;18.09;66.33;101180.38;10493393;28;20160;-75
2022/06/05 06:23:16;;;;;;;11.15;8.70;;;;;;;17.91;66.97;101190.56;10510228;28;19916;-74
2022/06/05 06:28:18;;;;;;;11.57;9.13;;;;;;;18.03;66.14;101189.09;10461545;28;20060;-75
2022/06/05 06:33:22;;;;;;;10.68;9.07;;;;;;;18.11;65.68;101182.19;10528592;28;20040;-74
2022/06/05 06:38:33;;;;;;;11.63;9.55;;;;;;;18.19;66.79;101167.38;10475806;28;20115;-74
2022/06/05 06:43:36;;;;;;;11.32;8.13;;;;;;;18.42;65.31;101155.47;10513382;28;20119;-73
2022/06/05 06:48:39;;;;;;;9.82;7.40;;;;;;;18.48;65.55;101153.81;10496036;28;20589;-73
2022/06/05 06:53:40;;;;;;;9.55;7.85;;;;;;;18.69;64.07;101151.56;10501159;28;20037;-73
2022/06/05 06:58:41;;;;;;;10.68;7.93;;;;;;;18.95;63.54;101146.72;10468542;28;20106;-73
2022/06/05 07:03:41;;;;;;;11.25;7.95;;;;;;;19.05;63.77;101138.09;10453785;28;20105;-73
2022/06/05 07:08:42;;;;;;;8.48;7.20;;;;;;;19.24;62.92;101135.72;10509735;28;20081;-74
2022/06/05 07:13:43;;;;;;;10.88;7.45;;;;;;;19.43;62.98;101128.97;10510176;28;20044;-74
2022/06/05 07:18:43;;;;;;;14.77;8.70;;;;;;;19.56;61.93;101126.50;10510710;28;20492;-74
2022/06/05 07:23:44;;;;;;;16.17;10.13;;;;;;;19.54;62.75;101109.66;10509827;28;20029;-74
2022/06/05 07:28:45;;;;;;;10.57;7.65;;;;;;;19.48;63.39;101116.66;10506186;28;20123;-74
2022/06/05 07:33:45;;;;;;;10.50;7.80;;;;;;;19.71;62.69;101105.47;10486383;28;20147;-75
2022/06/05 07:38:46;;;;;;;9.57;8.07;;;;;;;19.73;62.59;101101.09;10473812;28;20044;-74
2022/06/05 07:43:47;;;;;;;8.55;7.65;;;;;;;19.96;62.01;101103.19;10480507;28;20032;-75
2022/06/05 07:48:48;;;;;;;7.65;6.85;;;;;;;20.14;61.82;101102.50;10495844;28;20490;-75
2022/06/05 07:59:08;;;;;;;7.25;6.55;;;;;;;20.42;61.09;101093.97;10489252;28;20060;-74
2022/06/05 08:04:09;;;;;;;9.65;7.40;;;;;;;20.42;61.15;101096.63;10495953;28;20092;-74
2022/06/05 08:09:09;;;;;;;9.13;7.45;;;;;;;20.78;61.25;101093.44;10482124;28;20455;-74
2022/06/05 08:14:10;;;;;;;9.43;7.17;;;;;;;21.15;59.27;101091.97;10462101;28;20036;-80
2022/06/05 08:19:12;;;;;;;9.27;7.30;;;;;;;21.39;59.09;101078.81;10475603;28;20037;-75
2022/06/05 08:24:14;;;;;;;8.13;7.05;;;;;;;21.72;59.39;101076.38;10464357;28;20024;-73
2022/06/05 08:29:14;;;;;;;10.10;7.07;;;;;;;21.78;58.78;101079.09;10464360;28;20033;-74
2022/06/05 08:34:15;;;;;;;7.93;7.13;;;;;;;21.92;57.66;101075.59;10481724;28;20036;-73
2022/06/05 08:44:41;;;;;;;9.05;7.97;;;;;;;21.20;60.04;101087.56;10480778;27;20045;-73
2022/06/05 08:49:58;;;;;;;9.82;8.82;;;;;;;21.13;61.19;101084.00;10480081;28;20044;-73
2022/06/05 08:55:02;;;;;;;11.02;7.32;;;;;;;21.08;62.04;101083.06;10464674;28;20492;-73
2022/06/05 09:00:17;;;;;;;8.15;7.30;;;;;;;21.07;62.23;101090.13;10448068;28;20171;-73
2022/06/05 09:05:25;;;;;;;9.43;8.02;;;;;;;20.97;65.22;101086.53;10460178;28;20041;-73
2022/06/05 09:10:38;;;;;;;10.05;8.02;;;;;;;20.69;64.15;101082.69;10483858;28;20040;-74
2022/06/05 09:15:40;;;;;;;8.05;6.95;;;;;;;20.59;65.18;101084.38;10495051;28;20036;-73
2022/06/05 09:20:49;;;;;;;8.52;7.63;;;;;;;20.44;67.86;101078.91;10490194;28;20040;-74
2022/06/05 09:25:54;;;;;;;9.68;8.68;;;;;;;20.31;65.69;101075.22;10470843;28;20055;-73
2022/06/05 09:31:29;;;;;;;9.68;8.50;;;;;;;19.93;68.08;101074.81;10489890;28;20557;-73
2022/06/05 09:36:36;;;;;;;18.67;10.13;;;;;;;19.66;69.45;101068.22;10466652;28;20124;-74
2022/06/05 09:41:55;;;;;;;14.05;12.43;;;;;;;19.36;72.30;101063.41;10487776;28;20044;-76
2022/06/05 09:47:00;;;;;;;9.93;8.88;;;;;;;19.19;72.78;101058.75;10502610;28;20055;-74
2022/06/05 09:52:22;;;;;;;10.05;8.98;;;;;;;19.22;72.46;101055.22;10454742;28;20511;-75
2022/06/05 10:03:01;;;;;;;10.70;9.70;;;;;;;19.22;74.51;101047.25;10494095;28;20094;-76
2022/06/05 10:08:10;;;;;;;12.50;10.98;;;;;;;18.65;78.77;101055.16;10489216;28;20052;-74
2022/06/05 10:13:24;;;;;;;14.52;12.38;;;;;;;17.94;82.91;101062.66;10501413;28;20052;-75
2022/06/05 10:18:38;;;;;;;18.80;16.85;;;;;;;17.50;86.79;101055.53;10470315;28;20498;-74
2022/06/05 10:23:45;;;;;;;19.20;17.30;;;;;;;17.32;89.91;101046.34;10464974;28;20055;-75
2022/06/05 10:28:46;;;;;;;18.88;16.85;;;;;;;17.57;91.34;101046.88;10474095;28;20044;-81
2022/06/05 10:34:03;;;;;;;21.55;18.45;;;;;;;17.66;92.40;101054.13;10470289;28;20488;-77
2022/06/05 10:39:13;;;;;;;20.05;18.05;;;;;;;18.05;93.58;101049.66;10486818;28;20438;-77
2022/06/05 10:44:35;;;;;;;21.38;19.23;;;;;;;18.28;92.35;101042.16;10468159;28;20044;-77
2022/06/05 10:49:41;;;;;;;19.65;17.60;;;;;;;18.52;91.27;101027.56;10480324;28;20047;-77
2022/06/05 10:55:40;;;;;;;;;;;;;;;;;;;;;
2022/06/05 11:00:50;;;;;;;18.88;16.70;;;;;;;18.57;89.85;101011.72;10481066;28;20575;-76
2022/06/05 11:06:13;;;;;;;16.40;14.77;;;;;;;18.66;89.94;101000.41;10488208;28;20063;-75
2022/06/05 11:17:18;;;;;;;15.77;14.05;;;;;;;18.88;90.67;100983.97;10485391;28;20043;-74
2022/06/05 11:22:19;;;;;;;14.98;13.55;;;;;;;19.14;88.35;100967.59;10489150;28;20071;-74
2022/06/05 11:27:27;;;;;;;13.18;11.80;;;;;;;19.29;86.65;100966.00;10482614;28;20452;-73
2022/06/05 11:32:38;;;;;;;16.85;15.07;;;;;;;19.54;86.63;100964.53;10486162;28;20047;-74
2022/06/05 11:38:04;;;;;;;14.25;12.90;;;;;;;19.75;85.48;100963.94;10488542;28;20040;-74
2022/06/05 11:43:23;;;;;;;14.75;13.25;;;;;;;20.02;84.69;100942.97;10482380;28;20328;-74
2022/06/05 11:48:52;;;;;;;20.35;18.25;;;;;;;20.74;82.35;100929.38;10483881;28;20064;-74
2022/06/05 11:54:02;;;;;;;16.42;14.73;;;;;;;20.82;79.39;100935.69;10478737;28;20044;-73
2022/06/05 11:59:53;;;;;;;15.13;13.68;;;;;;;21.09;79.47;100936.72;10472272;28;20044;-76
2022/06/05 12:05:25;;;;;;;15.38;13.13;;;;;;;22.04;76.59;100921.06;10424022;28;20403;-74
2022/06/05 12:10:28;;;;;;;13.43;12.02;;;;;;;22.57;72.63;100910.44;10454302;28;20499;-74
2022/06/05 12:15:44;;;;;;;14.13;12.82;;;;;;;23.00;71.24;100896.09;10467741;28;20507;-73
2022/06/05 12:20:50;;;;;;;17.15;15.43;;;;;;;22.63;71.01;100897.09;10481424;28;20508;-73
2022/06/05 12:25:58;;;;;;;15.82;14.18;;;;;;;22.37;73.34;100891.75;10462377;28;20558;-75
2022/06/05 12:31:10;;;;;;;16.10;14.70;;;;;;;22.36;73.26;100888.22;10478214;28;20028;-74
2022/06/05 12:36:31;;;;;;;17.17;15.35;;;;;;;22.30;74.55;100891.75;10473418;28;20037;-73
2022/06/05 12:41:53;;;;;;;17.73;15.75;;;;;;;22.13;75.56;100883.78;10512424;28;20043;-73
2022/06/05 12:46:58;;;;;;;;;;;;;;;21.72;75.54;100881.97;10480293;28;20036;-73
2022/06/05 12:52:20;;;;;;;14.13;12.73;;;;;;;21.26;76.25;100880.91;10485783;28;19921;-73
2022/06/05 12:57:28;;;;;;;16.67;14.52;;;;;;;20.86;77.80;100871.84;10481412;28;20041;-72
2022/06/05 13:02:36;;;;;;;18.45;16.65;;;;;;;20.60;79.79;100875.22;10497613;28;20115;-73
2022/06/05 13:07:41;;;;;;;17.42;15.65;;;;;;;20.63;80.41;100869.94;10484960;28;20055;-73
2022/06/05 13:13:16;;;;;;;19.27;17.27;;;;;;;20.69;82.23;100854.91;10480967;28;20044;-73
2022/06/05 13:18:23;;;;;;;19.10;17.23;;;;;;;20.59;81.65;100842.44;10486039;28;20052;-73
2022/06/05 13:23:33;;;;;;;20.17;18.08;;;;;;;20.44;80.60;100843.22;10483355;28;20040;-73
2022/06/05 13:28:41;;;;;;;18.77;16.83;;;;;;;20.15;81.46;100841.25;10474756;28;20052;-72
2022/06/05 13:33:48;;;;;;;18.95;16.15;;;;;;;19.91;83.07;100852.56;10461244;28;20056;-73
2022/06/05 13:38:53;;;;;;;20.10;18.10;;;;;;;19.51;84.76;100840.66;10464926;28;20056;-74
2022/06/05 13:44:02;;;;;;;24.25;20.25;;;;;;;19.13;86.05;100840.22;10503943;28;20033;-73
2022/06/05 13:49:34;;;;;;;22.35;19.23;;;;;;;18.59;88.80;100825.38;10483255;28;20064;-74
2022/06/05 13:54:38;;;;;;;31.27;24.63;;;;;;;18.18;91.29;100845.06;10467951;28;20044;-75
2022/06/05 13:59:52;;;;;;;34.28;25.52;;;;;;;17.87;93.55;100839.25;10463986;28;20563;-74
2022/06/05 14:05:00;;;;;;;32.17;27.55;;;;;;;17.66;94.91;100842.41;10484693;28;20048;-74
2022/06/05 14:10:11;;;;;;;30.10;26.33;;;;;;;17.70;97.40;100841.59;10485172;28;20037;-73
2022/06/05 14:15:14;;;;;;;28.33;22.65;;;;;;;17.47;97.82;100846.47;10488387;28;20412;-73
2022/06/05 14:20:20;;;;;;;22.55;20.25;;;;;;;17.24;98.54;100832.81;10469726;28;20051;-74
2022/06/05 14:25:29;;;;;;;26.33;20.10;;;;;;;17.26;100.00;100821.38;10477352;28;20040;-75
2022/06/05 14:30:32;;;;;;;27.17;24.05;;;;;;;17.26;100.00;100815.22;10471172;28;20392;-75
2022/06/05 14:35:37;;;;;;;28.13;23.30;;;;;;;17.28;100.00;100827.59;10474349;28;20040;-76
2022/06/05 14:41:13;;;;;;;29.73;23.13;;;;;;;17.23;100.00;100837.19;10473752;28;20048;-76
2022/06/05 14:46:32;;;;;;;34.38;28.75;;;;;;;17.16;100.00;100853.78;10481340;28;20036;-76
2022/06/05 14:52:08;;;;;;;32.08;28.73;;;;;;;17.13;100.00;100856.38;10502417;28;20036;-75
2022/06/05 15:03:10;;;;;;;11.15;7.45;;;;;;;16.55;100.00;100860.41;10487144;28;20033;-75
2022/06/05 15:08:40;;;;;;;8.95;4.78;;;;;;;16.33;100.00;100851.06;10503009;28;20048;-76
2022/06/05 15:13:48;;;;;;;8.32;3.78;;;;;;;16.31;100.00;100849.28;10486836;28;20044;-76
2022/06/05 15:18:50;;;;;;;3.72;2.53;;;;;;;16.29;100.00;100852.78;10477458;28;20140;-76
2022/06/05 15:23:59;;;;;;;5.63;3.10;;;;;;;16.37;100.00;100838.84;10468372;28;20033;-76
2022/06/05 15:29:20;;;;;;;5.90;4.90;;;;;;;16.50;100.00;100827.72;10463715;28;20436;-76
2022/06/05 15:34:45;;;;;;;8.17;7.03;;;;;;;16.69;100.00;100833.41;10503974;28;20082;-74
2022/06/05 15:40:01;;;;;;;12.73;10.98;;;;;;;16.99;100.00;100838.47;10509597;28;20032;-75
2022/06/05 15:45:42;;;;;;;15.93;13.10;;;;;;;17.23;100.00;100836.31;10462946;28;20044;-75
2022/06/05 15:51:19;;;;;;;28.92;23.98;;;;;;;17.33;99.21;100830.34;10470859;28;20125;-74
2022/06/05 15:56:37;;;;;;;16.95;15.25;;;;;;;17.20;96.88;100825.69;10472122;28;20036;-74
2022/06/05 16:01:42;;;;;;;18.40;15.32;;;;;;;16.85;97.60;100824.03;10482226;28;20036;-74
2022/06/05 16:06:51;;;;;;;23.73;20.48;;;;;;;16.69;98.60;100809.63;10480280;28;20072;-74
2022/06/05 16:12:04;;;;;;;28.20;24.42;;;;;;;16.61;98.92;100813.84;10505717;28;20411;-74
2022/06/05 16:17:26;;;;;;;29.88;25.77;;;;;;;16.50;99.45;100826.81;10474907;28;20102;-75
2022/06/05 16:22:32;;;;;;;33.28;27.58;;;;;;;16.26;100.00;100842.13;10483022;28;20116;-75
2022/06/05 16:27:53;;;;;;;34.20;28.15;;;;;;;16.24;100.00;100849.13;10499562;28;20052;-74
2022/06/05 16:32:54;;;;;;;41.33;31.55;;;;;;;16.22;100.00;100861.41;10468172;28;20090;-75
2022/06/05 16:37:57;;;;;;;38.33;31.35;;;;;;;16.25;100.00;100879.97;10495459;28;20081;-73
2022/06/05 16:43:05;;;;;;;42.60;31.50;;;;;;;16.33;100.00;100887.19;10503261;28;20029;-73
2022/06/05 16:48:17;;;;;;;38.05;31.38;;;;;;;16.35;100.00;100899.53;10501114;28;20044;-73
2022/06/05 16:53:31;;;;;;;54.78;43.03;;;;;;;16.24;100.00;100916.88;10493795;28;20040;-73
2022/06/05 16:58:53;;;;;;;40.08;34.03;;;;;;;16.15;100.00;100921.06;10504909;28;20064;-73
2022/06/05 17:04:09;;;;;;;42.70;34.05;;;;;;;16.06;100.00;100920.81;10482089;28;20036;-73
2022/06/05 17:09:18;;;;;;;44.95;35.55;;;;;;;16.01;100.00;100938.28;10491294;28;20154;-72
2022/06/05 17:14:40;;;;;;;38.85;29.85;;;;;;;15.94;100.00;100926.69;10487111;28;20115;-73
2022/06/05 17:19:42;;;;;;;38.58;30.05;;;;;;;15.93;100.00;100939.84;10491273;28;20044;-73
2022/06/05 17:25:03;;;;;;;;;;;;;;;15.89;100.00;100937.97;10486325;28;20037;-73
2022/06/05 17:30:29;;;;;;;46.50;37.97;;;;;;;15.82;100.00;100937.75;10496533;28;20008;-73
2022/06/05 17:35:38;;;;;;;55.83;42.95;;;;;;;15.82;100.00;100940.41;10525675;28;20032;-73
2022/06/05 17:40:45;;;;;;;52.45;37.75;;;;;;;15.75;100.00;100937.56;10512105;28;20139;-76
2022/06/05 17:46:09;;;;;;;53.30;36.72;;;;;;;15.50;100.00;100952.72;10451591;28;20470;-73
2022/06/05 17:51:16;;;;;;;46.95;35.45;;;;;;;15.40;100.00;100954.16;10466951;28;20047;-74
2022/06/05 17:56:23;;;;;;;52.00;39.58;;;;;;;15.32;100.00;100958.31;10529474;28;20589;-75
2022/06/05 18:01:32;;;;;;;55.03;40.00;;;;;;;15.32;100.00;100971.50;10486216;28;20779;-76
2022/06/05 18:06:38;;;;;;;52.33;37.03;;;;;;;15.28;100.00;100975.81;10483531;28;20040;-75
2022/06/05 18:11:46;;;;;;;61.05;43.90;;;;;;;15.19;100.00;100972.91;10441190;28;20063;-76
2022/06/05 18:16:48;;;;;;;64.35;43.95;;;;;;;15.19;100.00;100971.13;10472301;28;20032;-74
2022/06/05 18:21:51;;;;;;;66.57;46.97;;;;;;;15.22;100.00;100968.59;10487660;28;20123;-76
2022/06/05 18:26:55;;;;;;;59.15;40.85;;;;;;;15.23;100.00;100970.38;10506667;28;20044;-76
2022/06/05 18:32:28;;;;;;;46.78;36.05;;;;;;;15.21;100.00;100979.09;10461128;28;20041;-76
2022/06/05 18:43:03;;;;;;;38.92;29.58;;;;;;;15.10;100.00;100971.75;10476398;28;19921;-77
2022/06/05 18:48:09;;;;;;;44.85;31.90;;;;;;;15.05;100.00;100968.09;10471063;28;20441;-76
2022/06/05 18:53:17;;;;;;;38.00;30.90;;;;;;;14.97;100.00;100972.22;10485202;28;20064;-77
2022/06/05 18:58:21;;;;;;;35.75;27.90;;;;;;;14.91;100.00;100988.72;10465440;28;20455;-77
2022/06/05 19:03:33;;;;;;;42.75;33.20;;;;;;;14.85;100.00;100993.81;10484744;28;20052;-77
2022/06/05 19:08:40;;;;;;;42.88;33.53;;;;;;;14.81;100.00;101003.38;10470795;28;20108;-76
2022/06/05 19:14:00;;;;;;;49.10;32.22;;;;;;;14.74;100.00;101005.72;10476892;28;20128;-76
2022/06/05 19:19:03;;;;;;;47.80;33.15;;;;;;;14.71;100.00;101013.53;10485668;28;20032;-75
2022/06/05 19:24:15;;;;;;;46.30;31.85;;;;;;;14.73;100.00;101020.66;10484297;28;20030;-76
2022/06/05 19:29:18;;;;;;;44.05;35.15;;;;;;;14.67;100.00;101029.22;10492442;28;20442;-77
2022/06/05 19:34:24;;;;;;;50.70;34.83;;;;;;;14.62;100.00;101038.69;10464900;28;20097;-76
2022/06/05 19:39:34;;;;;;;52.65;39.97;;;;;;;14.60;100.00;101044.78;10487061;28;20408;-77
2022/06/05 19:44:36;;;;;;;54.38;37.03;;;;;;;14.58;100.00;101054.34;10483985;28;20085;-78
2022/06/05 19:49:44;;;;;;;83.77;42.90;;;;;;;14.50;100.00;101056.72;10469080;28;20147;-77
2022/06/05 19:54:45;;;;;;;62.60;40.70;;;;;;;14.50;100.00;101056.72;10459279;28;20773;-78
2022/06/05 20:00:04;;;;;;;66.82;41.97;;;;;;;14.50;100.00;101061.97;10482686;28;20045;-78
2022/06/05 20:05:22;;;;;;;66.38;44.95;;;;;;;14.43;100.00;101060.88;10500515;28;20048;-76
2022/06/05 20:10:26;;;;;;;73.85;49.55;;;;;;;14.37;100.00;101068.56;10486509;28;20047;-76
2022/06/05 20:15:33;;;;;;;78.07;51.10;;;;;;;14.27;100.00;101069.09;10472496;28;20130;-76
2022/06/05 20:20:50;;;;;;;80.85;51.28;;;;;;;14.27;100.00;101076.97;10479042;28;20036;-78
2022/06/05 20:26:19;;;;;;;86.05;54.58;;;;;;;14.23;100.00;101087.41;10466392;28;20039;-76
2022/06/05 20:31:21;;;;;;;101.20;63.25;;;;;;;14.24;100.00;101083.00;10476461;28;20138;-79
2022/06/05 20:36:22;;;;;;;90.78;59.05;;;;;;;14.24;100.00;101077.75;10480808;28;20074;-77
2022/06/05 20:41:30;;;;;;;95.70;60.03;;;;;;;14.41;100.00;101077.44;10481726;28;20037;-78
2022/06/05 20:46:30;;;;;;;106.18;65.28;;;;;;;14.52;100.00;101079.63;10498366;28;20128;-78
2022/06/05 20:51:31;;;;;;;96.25;60.08;;;;;;;14.59;100.00;101087.75;10510504;28;20039;-77
2022/06/05 20:56:49;;;;;;;112.25;68.65;;;;;;;14.63;100.00;101087.91;10485105;28;20123;-77
2022/06/05 21:01:54;;;;;;;111.20;62.33;;;;;;;14.67;100.00;101089.78;10494687;28;20039;-78
2022/06/05 21:07:19;;;;;;;109.25;66.10;;;;;;;14.75;100.00;101090.09;10465953;28;20039;-77
2022/06/05 21:17:39;;;;;;;109.38;60.92;;;;;;;14.89;100.00;101109.00;10453870;28;20068;-77
2022/06/05 21:22:40;;;;;;;96.72;58.92;;;;;;;14.95;100.00;101117.13;10463369;28;20111;-77
2022/06/05 21:27:47;;;;;;;107.40;59.15;;;;;;;14.96;100.00;101118.91;10463781;28;20017;-77
2022/06/05 21:32:49;;;;;;;85.40;56.95;;;;;;;15.06;100.00;101135.03;10481037;28;20123;-77
2022/06/05 21:38:02;;;;;;;123.18;63.67;;;;;;;15.06;100.00;101143.84;10476949;28;20058;-77
2022/06/05 21:43:04;;;;;;;109.82;59.90;;;;;;;15.11;100.00;101150.16;10446697;28;20041;-77
2022/06/05 21:48:06;;;;;;;105.75;59.35;;;;;;;15.20;100.00;101152.19;10479655;28;20033;-77
2022/06/05 21:53:08;;;;;;;129.43;75.78;;;;;;;15.14;100.00;101165.19;10463392;28;20443;-76
2022/06/05 21:58:13;;;;;;;132.70;72.25;;;;;;;14.93;100.00;101187.31;10466964;28;20032;-76
2022/06/05 22:03:24;;;;;;;111.03;65.55;;;;;;;14.69;100.00;101192.59;10480870;28;20103;-75
2022/06/05 22:08:25;;;;;;;106.13;64.75;;;;;;;14.53;100.00;101180.59;10464329;28;20037;-76
2022/06/05 22:13:27;;;;;;;95.65;59.42;;;;;;;14.36;99.90;101216.84;10479653;28;20041;-75
2022/06/05 22:18:27;;;;;;;84.47;53.88;;;;;;;14.22;99.30;101232.09;10426397;28;20116;-76
2022/06/05 22:23:28;;;;;;;79.28;51.22;;;;;;;14.11;99.51;101229.06;10459529;28;20032;-76
2022/06/05 22:28:29;;;;;;;92.00;52.00;;;;;;;14.04;99.76;101238.44;10527736;28;20056;-74
2022/06/05 22:33:29;;;;;;;86.63;52.88;;;;;;;13.98;100.00;101239.97;10529254;28;20115;-74
2022/06/05 22:38:30;;;;;;;90.43;52.88;;;;;;;13.91;99.53;101255.50;10488922;28;20046;-74
2022/06/05 22:43:30;;;;;;;87.25;53.60;;;;;;;13.88;99.31;101246.56;10487780;28;20045;-73
2022/06/05 22:48:31;;;;;;;85.60;55.05;;;;;;;13.80;99.13;101259.44;10517609;28;20100;-74
2022/06/05 22:53:31;;;;;;;88.03;54.88;;;;;;;13.76;99.06;101257.50;10531209;28;20064;-74
2022/06/05 22:58:32;;;;;;;93.72;54.67;;;;;;;13.72;99.78;101271.38;10500438;28;20119;-74
2022/06/05 23:03:32;;;;;;;92.20;54.90;;;;;;;13.71;99.59;101266.94;10489354;28;20068;-74
2022/06/05 23:08:33;;;;;;;74.40;46.17;;;;;;;13.71;99.38;101265.19;10489994;28;20119;-74
2022/06/05 23:13:34;;;;;;;77.82;40.97;;;;;;;13.63;99.26;101264.91;10517379;28;20119;-74
2022/06/05 23:23:53;;;;;;;57.25;34.25;;;;;;;13.55;99.13;101266.31;10433968;28;20489;-74
2022/06/05 23:28:54;;;;;;;52.78;32.35;;;;;;;13.50;99.37;101262.59;10452974;28;20036;-74
2022/06/05 23:33:54;;;;;;;54.47;32.20;;;;;;;13.50;99.81;101257.31;10487649;28;20032;-73
2022/06/05 23:38:55;;;;;;;49.83;32.13;;;;;;;13.53;99.73;101261.81;10485798;28;20031;-74
2022/06/05 23:43:56;;;;;;;54.58;32.47;;;;;;;13.53;99.36;101246.94;10434533;28;20170;-74
2022/06/05 23:49:00;;;;;;;62.85;35.33;;;;;;;13.58;99.66;101249.75;10444718;28;20060;-75
2022/06/05 23:54:02;;;;;;;63.85;36.15;;;;;;;13.53;99.68;101256.53;10476390;28;20071;-74
2022/06/05 23:59:03;;;;;;;64.00;36.90;;;;;;;13.43;100.00;101245.63;10468786;28;20119;-74
